Surat Thani, Thailand

1:00 AM ICT on October 21, 2014 (GMT +0700)
Surat Thani | Change Station
CLOSE
Current Station
Airport
Location: Surat Thani,
Elevation: 23 ft
Nearby Weather Stations

Elev 23 ft 9.13 °N, 99.15 °E | Updated 1 hour ago

Scattered Clouds
Scattered Clouds
75 °F
Feels Like 75 °F
N
0
Wind Variable Wind from North

Today
High -- | Low -- °F
--% Chance of Precip.
Yesterday
High -- | Low -- °F
Precip. -- in
6:11 AM 6:04 PM
Waning Crescent, 10% visible
Pressure 29.92 in
Visibility 4.3 miles
Clouds Few 2000 ft
Scattered Clouds 30000 ft
Dew Point 75 °F
Humidity 100%
Rainfall 0.00 in
Snow Depth Not available.
UV 0 out of 12
Pollen Not available.
Air Quality Not available.
Flu Activity Not available.
METAR VTSB 201700Z 00000KT 7000 FEW020 SCT300 24/24 Q1013 A2992

More Conditions Fewer Conditions

Pressure 29.92 in
Visibility 4.3 miles
Clouds Few 2000 ft
Scattered Clouds 30000 ft
Dew Point 75 °F
Humidity 100%
Rainfall 0.00 in
Snow Depth Not available.
UV 0 out of 12
Pollen Not available.
Air Quality Not available.
Flu Activity Not available.
METAR VTSB 201700Z 00000KT 7000 FEW020 SCT300 24/24 Q1013 A2992

More Conditions Fewer Conditions

10-Day Weather Forecast

Almanac

Astronomy

Oct. 21, 2014 Rise Set
Actual Time 6:11 AM ICT 6:04 PM ICT
Civil Twilight 5:50 AM ICT 6:25 PM ICT
Nautical Twilight 5:25 AM ICT 6:50 PM ICT
Astronomical Twilight 5:01 AM ICT 7:15 PM ICT
Moon 3:56 AM ICT (10/21) 4:16 PM ICT (10/21)
Length of Visible Light 12h 35m
Length of Day
11h 52m
Tomorrow will be 0m 28s shorter.
Waning Crescent, 10% of the Moon is Illuminated
Oct 20
Waning Crescent
Oct 23
New
Oct 30
First Quarter
Nov 6
Full
Nov 14
Last Quarter

Yesterday's Extremes

Country Highs Country Lows

Community

WunderPhotos

Upload Photos

1,763,455 photos uploaded!

WunderBlogs® & News

Nearby

Snow Depth

Not available.

Earthquake Activity

City Distance Mag. Time & Date
No recent earthquake activity has been reported nearby.
Minimum magnitude displayed is 2.5.

Coastal Water Temperatures

Place Temperature
No Stations Reporting

Nearby Weather Stations